sensor_id;sensor_type;location;lat;lon;timestamp;temperature;humidity
26954;DHT22;14508;50.924;11.600;2023-08-24T00:02:16;16.80;99.90
26954;DHT22;14508;50.924;11.600;2023-08-24T00:04:44;16.70;99.90
26954;DHT22;14508;50.924;11.600;2023-08-24T00:07:12;16.70;99.90
26954;DHT22;14508;50.924;11.600;2023-08-24T00:09:40;16.70;99.90
26954;DHT22;14508;50.924;11.600;2023-08-24T00:12:09;16.70;99.90
26954;DHT22;14508;50.924;11.600;2023-08-24T00:14:37;16.70;99.90
26954;DHT22;14508;50.924;11.600;2023-08-24T00:17:05;16.60;99.90
26954;DHT22;14508;50.924;11.600;2023-08-24T00:19:33;16.60;99.90
26954;DHT22;14508;50.924;11.600;2023-08-24T00:22:01;16.60;99.90
26954;DHT22;14508;50.924;11.600;2023-08-24T00:24:30;16.60;99.90
26954;DHT22;14508;50.924;11.600;2023-08-24T00:26:58;16.60;99.90
26954;DHT22;14508;50.924;11.600;2023-08-24T00:29:28;16.50;99.90
26954;DHT22;14508;50.924;11.600;2023-08-24T00:31:56;16.50;99.90
26954;DHT22;14508;50.924;11.600;2023-08-24T00:34:25;16.50;99.90
26954;DHT22;14508;50.924;11.600;2023-08-24T00:36:53;16.50;99.90
26954;DHT22;14508;50.924;11.600;2023-08-24T00:39:23;16.50;99.90
26954;DHT22;14508;50.924;11.600;2023-08-24T00:41:51;16.40;99.90
26954;DHT22;14508;50.924;11.600;2023-08-24T00:44:19;16.40;99.90
26954;DHT22;14508;50.924;11.600;2023-08-24T00:46:48;16.30;99.90
26954;DHT22;14508;50.924;11.600;2023-08-24T00:49:16;16.40;99.90
26954;DHT22;14508;50.924;11.600;2023-08-24T00:51:45;16.40;99.90
26954;DHT22;14508;50.924;11.600;2023-08-24T00:54:13;16.30;99.90
26954;DHT22;14508;50.924;11.600;2023-08-24T00:56:41;16.30;99.90
26954;DHT22;14508;50.924;11.600;2023-08-24T00:59:09;16.30;99.90
26954;DHT22;14508;50.924;11.600;2023-08-24T01:01:39;16.30;99.90
26954;DHT22;14508;50.924;11.600;2023-08-24T01:04:10;16.30;99.90
26954;DHT22;14508;50.924;11.600;2023-08-24T01:06:39;16.20;99.90
26954;DHT22;14508;50.924;11.600;2023-08-24T01:09:07;16.20;99.90
26954;DHT22;14508;50.924;11.600;2023-08-24T01:11:43;16.20;99.90
26954;DHT22;14508;50.924;11.600;2023-08-24T01:14:21;16.20;99.90
26954;DHT22;14508;50.924;11.600;2023-08-24T01:16:54;16.20;99.90
26954;DHT22;14508;50.924;11.600;2023-08-24T01:19:37;16.20;99.90
26954;DHT22;14508;50.924;11.600;2023-08-24T01:22:14;16.20;99.90
26954;DHT22;14508;50.924;11.600;2023-08-24T01:24:47;16.20;99.90
26954;DHT22;14508;50.924;11.600;2023-08-24T01:27:21;16.20;99.90
26954;DHT22;14508;50.924;11.600;2023-08-24T01:29:49;16.10;99.90
26954;DHT22;14508;50.924;11.600;2023-08-24T01:32:19;16.10;99.90
26954;DHT22;14508;50.924;11.600;2023-08-24T01:34:48;16.10;99.90
26954;DHT22;14508;50.924;11.600;2023-08-24T01:37:16;16.10;99.90
26954;DHT22;14508;50.924;11.600;2023-08-24T01:39:49;16.00;99.90
26954;DHT22;14508;50.924;11.600;2023-08-24T01:42:24;16.00;99.90
26954;DHT22;14508;50.924;11.600;2023-08-24T01:44:56;16.00;99.90
26954;DHT22;14508;50.924;11.600;2023-08-24T01:47:27;16.00;99.90
26954;DHT22;14508;50.924;11.600;2023-08-24T01:49:56;16.00;99.90
26954;DHT22;14508;50.924;11.600;2023-08-24T01:52:24;15.90;99.90
26954;DHT22;14508;50.924;11.600;2023-08-24T01:54:53;15.90;99.90
26954;DHT22;14508;50.924;11.600;2023-08-24T01:57:23;15.90;99.90
26954;DHT22;14508;50.924;11.600;2023-08-24T01:59:51;15.90;99.90
26954;DHT22;14508;50.924;11.600;2023-08-24T02:02:20;15.90;99.90
26954;DHT22;14508;50.924;11.600;2023-08-24T02:04:48;15.90;99.90
26954;DHT22;14508;50.924;11.600;2023-08-24T02:07:16;15.90;99.90
26954;DHT22;14508;50.924;11.600;2023-08-24T02:09:45;15.90;99.90
26954;DHT22;14508;50.924;11.600;2023-08-24T02:12:13;15.90;99.90
26954;DHT22;14508;50.924;11.600;2023-08-24T02:14:43;15.80;99.90
26954;DHT22;14508;50.924;11.600;2023-08-24T02:17:11;15.80;99.90
26954;DHT22;14508;50.924;11.600;2023-08-24T02:19:39;15.80;99.90
26954;DHT22;14508;50.924;11.600;2023-08-24T02:22:08;15.70;99.90
26954;DHT22;14508;50.924;11.600;2023-08-24T02:24:37;15.80;99.90
26954;DHT22;14508;50.924;11.600;2023-08-24T02:27:05;15.70;99.90
26954;DHT22;14508;50.924;11.600;2023-08-24T02:29:33;15.70;99.90
26954;DHT22;14508;50.924;11.600;2023-08-24T02:32:02;15.70;99.90
26954;DHT22;14508;50.924;11.600;2023-08-24T02:34:30;15.70;99.90
26954;DHT22;14508;50.924;11.600;2023-08-24T02:36:59;15.70;99.90
26954;DHT22;14508;50.924;11.600;2023-08-24T02:39:27;15.70;99.90
26954;DHT22;14508;50.924;11.600;2023-08-24T02:41:55;15.70;99.90
26954;DHT22;14508;50.924;11.600;2023-08-24T02:44:23;15.70;99.90
26954;DHT22;14508;50.924;11.600;2023-08-24T02:46:51;15.70;99.90
26954;DHT22;14508;50.924;11.600;2023-08-24T02:49:20;15.60;99.90
26954;DHT22;14508;50.924;11.600;2023-08-24T02:51:48;15.60;99.90
26954;DHT22;14508;50.924;11.600;2023-08-24T02:54:16;15.60;99.90
26954;DHT22;14508;50.924;11.600;2023-08-24T02:56:45;15.60;99.90
26954;DHT22;14508;50.924;11.600;2023-08-24T02:59:13;15.60;99.90
26954;DHT22;14508;50.924;11.600;2023-08-24T03:01:41;15.60;99.90
26954;DHT22;14508;50.924;11.600;2023-08-24T03:04:09;15.50;99.90
26954;DHT22;14508;50.924;11.600;2023-08-24T03:06:38;15.50;99.90
26954;DHT22;14508;50.924;11.600;2023-08-24T03:09:06;15.50;99.90
26954;DHT22;14508;50.924;11.600;2023-08-24T03:11:34;15.50;99.90
26954;DHT22;14508;50.924;11.600;2023-08-24T03:14:02;15.50;99.90
26954;DHT22;14508;50.924;11.600;2023-08-24T03:16:30;15.50;99.90
26954;DHT22;14508;50.924;11.600;2023-08-24T03:18:59;15.50;99.90
26954;DHT22;14508;50.924;11.600;2023-08-24T03:21:27;15.50;99.90
26954;DHT22;14508;50.924;11.600;2023-08-24T03:23:56;15.50;99.90
26954;DHT22;14508;50.924;11.600;2023-08-24T03:26:24;15.40;99.90
26954;DHT22;14508;50.924;11.600;2023-08-24T03:28:53;15.40;99.90
26954;DHT22;14508;50.924;11.600;2023-08-24T03:31:23;15.40;99.90
26954;DHT22;14508;50.924;11.600;2023-08-24T03:33:53;15.40;99.90
26954;DHT22;14508;50.924;11.600;2023-08-24T03:36:21;15.40;99.90
26954;DHT22;14508;50.924;11.600;2023-08-24T03:38:49;15.40;99.90
26954;DHT22;14508;50.924;11.600;2023-08-24T03:41:18;15.30;99.90
26954;DHT22;14508;50.924;11.600;2023-08-24T03:43:46;15.30;99.90
26954;DHT22;14508;50.924;11.600;2023-08-24T03:46:14;15.30;99.90
26954;DHT22;14508;50.924;11.600;2023-08-24T03:48:43;15.30;99.90
26954;DHT22;14508;50.924;11.600;2023-08-24T03:51:11;15.30;99.90
26954;DHT22;14508;50.924;11.600;2023-08-24T03:53:40;15.30;99.90
26954;DHT22;14508;50.924;11.600;2023-08-24T03:56:08;15.30;99.90
26954;DHT22;14508;50.924;11.600;2023-08-24T03:58:37;15.30;99.90
26954;DHT22;14508;50.924;11.600;2023-08-24T04:01:10;15.30;99.90
26954;DHT22;14508;50.924;11.600;2023-08-24T04:03:38;15.30;99.90
26954;DHT22;14508;50.924;11.600;2023-08-24T04:06:05;15.30;99.90
26954;DHT22;14508;50.924;11.600;2023-08-24T04:08:34;15.30;99.90
26954;DHT22;14508;50.924;11.600;2023-08-24T04:11:02;15.20;99.90
26954;DHT22;14508;50.924;11.600;2023-08-24T04:13:30;15.20;99.90
26954;DHT22;14508;50.924;11.600;2023-08-24T04:16:00;15.20;99.90
26954;DHT22;14508;50.924;11.600;2023-08-24T04:18:28;15.20;99.90
26954;DHT22;14508;50.924;11.600;2023-08-24T04:20:56;15.10;99.90
26954;DHT22;14508;50.924;11.600;2023-08-24T04:23:25;15.10;99.90
26954;DHT22;14508;50.924;11.600;2023-08-24T04:25:53;15.10;99.90
26954;DHT22;14508;50.924;11.600;2023-08-24T04:28:21;15.10;99.90
26954;DHT22;14508;50.924;11.600;2023-08-24T04:30:50;15.10;99.90
26954;DHT22;14508;50.924;11.600;2023-08-24T04:33:20;15.10;99.90
26954;DHT22;14508;50.924;11.600;2023-08-24T04:35:49;15.10;99.90
26954;DHT22;14508;50.924;11.600;2023-08-24T04:38:17;15.20;99.90
26954;DHT22;14508;50.924;11.600;2023-08-24T04:40:50;15.20;99.90
26954;DHT22;14508;50.924;11.600;2023-08-24T04:43:20;15.20;99.90
26954;DHT22;14508;50.924;11.600;2023-08-24T04:45:49;15.30;99.90
26954;DHT22;14508;50.924;11.600;2023-08-24T04:48:21;15.30;99.90
26954;DHT22;14508;50.924;11.600;2023-08-24T04:50:50;15.30;99.90
26954;DHT22;14508;50.924;11.600;2023-08-24T04:53:20;15.30;99.90
26954;DHT22;14508;50.924;11.600;2023-08-24T04:55:48;15.40;99.90
26954;DHT22;14508;50.924;11.600;2023-08-24T04:58:16;15.40;99.90
26954;DHT22;14508;50.924;11.600;2023-08-24T05:00:44;15.40;99.90
26954;DHT22;14508;50.924;11.600;2023-08-24T05:03:13;15.40;99.90
26954;DHT22;14508;50.924;11.600;2023-08-24T05:05:42;15.40;99.90
26954;DHT22;14508;50.924;11.600;2023-08-24T05:08:10;15.40;99.90
26954;DHT22;14508;50.924;11.600;2023-08-24T05:10:39;15.40;99.90
26954;DHT22;14508;50.924;11.600;2023-08-24T05:13:08;15.40;99.90
26954;DHT22;14508;50.924;11.600;2023-08-24T05:15:36;15.40;99.90
26954;DHT22;14508;50.924;11.600;2023-08-24T05:18:04;15.40;99.90
26954;DHT22;14508;50.924;11.600;2023-08-24T05:20:32;15.40;99.90
26954;DHT22;14508;50.924;11.600;2023-08-24T05:23:02;15.50;99.90
26954;DHT22;14508;50.924;11.600;2023-08-24T05:25:30;15.50;99.90
26954;DHT22;14508;50.924;11.600;2023-08-24T05:27:58;15.50;99.90
26954;DHT22;14508;50.924;11.600;2023-08-24T05:30:26;15.50;99.90
26954;DHT22;14508;50.924;11.600;2023-08-24T05:32:56;15.60;99.90
26954;DHT22;14508;50.924;11.600;2023-08-24T05:35:24;15.60;99.90
26954;DHT22;14508;50.924;11.600;2023-08-24T05:37:54;15.70;99.90
26954;DHT22;14508;50.924;11.600;2023-08-24T05:40:23;15.80;99.90
26954;DHT22;14508;50.924;11.600;2023-08-24T05:42:51;15.90;99.90
26954;DHT22;14508;50.924;11.600;2023-08-24T05:45:20;15.90;99.90
26954;DHT22;14508;50.924;11.600;2023-08-24T05:47:52;16.00;99.90
26954;DHT22;14508;50.924;11.600;2023-08-24T05:50:20;16.10;99.90
26954;DHT22;14508;50.924;11.600;2023-08-24T05:52:49;16.10;99.90
26954;DHT22;14508;50.924;11.600;2023-08-24T05:55:17;16.20;99.90
26954;DHT22;14508;50.924;11.600;2023-08-24T05:57:46;16.20;99.90
26954;DHT22;14508;50.924;11.600;2023-08-24T06:00:16;16.30;99.90
26954;DHT22;14508;50.924;11.600;2023-08-24T06:02:44;16.40;99.90
26954;DHT22;14508;50.924;11.600;2023-08-24T06:05:12;16.50;99.90
26954;DHT22;14508;50.924;11.600;2023-08-24T06:07:40;16.60;99.90
26954;DHT22;14508;50.924;11.600;2023-08-24T06:10:09;16.60;99.90
26954;DHT22;14508;50.924;11.600;2023-08-24T06:12:37;16.70;99.90
26954;DHT22;14508;50.924;11.600;2023-08-24T06:15:07;16.80;99.90
26954;DHT22;14508;50.924;11.600;2023-08-24T06:17:37;16.90;99.90
26954;DHT22;14508;50.924;11.600;2023-08-24T06:20:07;17.00;99.90
26954;DHT22;14508;50.924;11.600;2023-08-24T06:22:37;17.10;99.90
26954;DHT22;14508;50.924;11.600;2023-08-24T06:25:06;17.20;99.90
26954;DHT22;14508;50.924;11.600;2023-08-24T06:27:35;17.30;99.90
26954;DHT22;14508;50.924;11.600;2023-08-24T06:30:06;17.30;99.90
26954;DHT22;14508;50.924;11.600;2023-08-24T06:32:35;17.50;99.90
26954;DHT22;14508;50.924;11.600;2023-08-24T06:35:04;17.60;99.90
26954;DHT22;14508;50.924;11.600;2023-08-24T06:37:33;17.70;99.90
26954;DHT22;14508;50.924;11.600;2023-08-24T06:40:01;17.80;99.90
26954;DHT22;14508;50.924;11.600;2023-08-24T06:42:31;17.90;99.90
26954;DHT22;14508;50.924;11.600;2023-08-24T06:44:59;18.00;99.90
26954;DHT22;14508;50.924;11.600;2023-08-24T06:47:28;18.20;99.90
26954;DHT22;14508;50.924;11.600;2023-08-24T06:49:56;18.30;99.90
26954;DHT22;14508;50.924;11.600;2023-08-24T06:52:24;18.40;99.90
26954;DHT22;14508;50.924;11.600;2023-08-24T06:54:52;18.60;99.90
26954;DHT22;14508;50.924;11.600;2023-08-24T06:57:23;18.70;99.90
26954;DHT22;14508;50.924;11.600;2023-08-24T06:59:51;18.90;99.90
26954;DHT22;14508;50.924;11.600;2023-08-24T07:02:19;18.90;99.90
26954;DHT22;14508;50.924;11.600;2023-08-24T07:04:49;19.00;99.90
26954;DHT22;14508;50.924;11.600;2023-08-24T07:07:17;19.10;99.90
26954;DHT22;14508;50.924;11.600;2023-08-24T07:09:45;19.20;99.90
26954;DHT22;14508;50.924;11.600;2023-08-24T07:12:13;19.30;99.90
26954;DHT22;14508;50.924;11.600;2023-08-24T07:14:41;19.40;99.90
26954;DHT22;14508;50.924;11.600;2023-08-24T07:17:09;19.60;99.90
26954;DHT22;14508;50.924;11.600;2023-08-24T07:19:37;19.80;99.90
26954;DHT22;14508;50.924;11.600;2023-08-24T07:22:06;20.00;99.90
26954;DHT22;14508;50.924;11.600;2023-08-24T07:24:35;20.10;99.90
26954;DHT22;14508;50.924;11.600;2023-08-24T07:27:11;20.30;99.90
26954;DHT22;14508;50.924;11.600;2023-08-24T07:29:40;20.50;99.90
26954;DHT22;14508;50.924;11.600;2023-08-24T07:32:08;20.60;99.90
26954;DHT22;14508;50.924;11.600;2023-08-24T07:34:36;20.60;99.90
26954;DHT22;14508;50.924;11.600;2023-08-24T07:37:05;20.60;99.90
26954;DHT22;14508;50.924;11.600;2023-08-24T07:39:33;20.60;99.90
26954;DHT22;14508;50.924;11.600;2023-08-24T07:42:01;20.60;99.90
26954;DHT22;14508;50.924;11.600;2023-08-24T07:44:30;20.70;99.90
26954;DHT22;14508;50.924;11.600;2023-08-24T07:46:58;20.90;99.90
26954;DHT22;14508;50.924;11.600;2023-08-24T07:49:26;21.10;99.90
26954;DHT22;14508;50.924;11.600;2023-08-24T07:51:54;21.30;99.90
26954;DHT22;14508;50.924;11.600;2023-08-24T07:54:25;21.50;99.90
26954;DHT22;14508;50.924;11.600;2023-08-24T07:56:54;21.60;99.90
26954;DHT22;14508;50.924;11.600;2023-08-24T07:59:22;21.80;99.90
26954;DHT22;14508;50.924;11.600;2023-08-24T08:01:50;22.00;99.90
26954;DHT22;14508;50.924;11.600;2023-08-24T08:04:18;22.20;99.90
26954;DHT22;14508;50.924;11.600;2023-08-24T08:06:46;22.40;99.90
26954;DHT22;14508;50.924;11.600;2023-08-24T08:09:14;22.60;99.90
26954;DHT22;14508;50.924;11.600;2023-08-24T08:11:44;22.80;99.90
26954;DHT22;14508;50.924;11.600;2023-08-24T08:14:13;23.00;99.90
26954;DHT22;14508;50.924;11.600;2023-08-24T08:16:41;23.20;99.90
26954;DHT22;14508;50.924;11.600;2023-08-24T08:19:09;23.40;99.90
26954;DHT22;14508;50.924;11.600;2023-08-24T08:21:37;23.70;99.90
26954;DHT22;14508;50.924;11.600;2023-08-24T08:24:06;23.80;99.90
26954;DHT22;14508;50.924;11.600;2023-08-24T08:26:34;24.10;99.80
26954;DHT22;14508;50.924;11.600;2023-08-24T08:29:03;24.30;98.20
26954;DHT22;14508;50.924;11.600;2023-08-24T08:31:32;24.40;96.20
26954;DHT22;14508;50.924;11.600;2023-08-24T08:34:00;24.60;94.90
26954;DHT22;14508;50.924;11.600;2023-08-24T08:36:31;24.80;94.10
26954;DHT22;14508;50.924;11.600;2023-08-24T08:38:59;25.00;92.60
26954;DHT22;14508;50.924;11.600;2023-08-24T08:41:31;25.00;91.60
26954;DHT22;14508;50.924;11.600;2023-08-24T08:44:06;25.00;91.50
26954;DHT22;14508;50.924;11.600;2023-08-24T08:46:34;25.00;91.70
26954;DHT22;14508;50.924;11.600;2023-08-24T08:49:02;25.10;91.50
26954;DHT22;14508;50.924;11.600;2023-08-24T08:51:31;25.20;91.40
26954;DHT22;14508;50.924;11.600;2023-08-24T08:54:00;25.20;91.30
26954;DHT22;14508;50.924;11.600;2023-08-24T08:56:28;25.20;91.20
26954;DHT22;14508;50.924;11.600;2023-08-24T08:58:58;25.20;91.50
26954;DHT22;14508;50.924;11.600;2023-08-24T09:01:28;25.20;91.60
26954;DHT22;14508;50.924;11.600;2023-08-24T09:03:57;25.10;91.60
26954;DHT22;14508;50.924;11.600;2023-08-24T09:06:25;25.00;91.60
26954;DHT22;14508;50.924;11.600;2023-08-24T09:08:53;24.90;92.20
26954;DHT22;14508;50.924;11.600;2023-08-24T09:11:22;24.70;92.60
26954;DHT22;14508;50.924;11.600;2023-08-24T09:13:51;24.60;93.00
26954;DHT22;14508;50.924;11.600;2023-08-24T09:16:19;24.50;93.20
26954;DHT22;14508;50.924;11.600;2023-08-24T09:18:49;24.50;93.60
26954;DHT22;14508;50.924;11.600;2023-08-24T09:21:16;24.60;94.00
26954;DHT22;14508;50.924;11.600;2023-08-24T09:23:51;24.60;93.60
26954;DHT22;14508;50.924;11.600;2023-08-24T09:26:27;24.70;93.60
26954;DHT22;14508;50.924;11.600;2023-08-24T09:28:55;24.70;93.20
26954;DHT22;14508;50.924;11.600;2023-08-24T09:31:23;24.70;92.70
26954;DHT22;14508;50.924;11.600;2023-08-24T09:34:00;24.70;92.00
26954;DHT22;14508;50.924;11.600;2023-08-24T09:36:31;24.70;91.40
26954;DHT22;14508;50.924;11.600;2023-08-24T09:38:59;24.70;91.50
26954;DHT22;14508;50.924;11.600;2023-08-24T09:41:37;24.60;92.20
26954;DHT22;14508;50.924;11.600;2023-08-24T09:44:06;24.60;92.80
26954;DHT22;14508;50.924;11.600;2023-08-24T09:46:34;24.60;93.40
26954;DHT22;14508;50.924;11.600;2023-08-24T09:49:05;24.60;93.50
26954;DHT22;14508;50.924;11.600;2023-08-24T09:51:35;24.70;93.30
26954;DHT22;14508;50.924;11.600;2023-08-24T09:54:05;24.70;92.50
26954;DHT22;14508;50.924;11.600;2023-08-24T09:56:36;24.80;92.50
26954;DHT22;14508;50.924;11.600;2023-08-24T09:59:10;24.80;93.50
26954;DHT22;14508;50.924;11.600;2023-08-24T10:01:44;24.90;93.90
26954;DHT22;14508;50.924;11.600;2023-08-24T10:04:15;25.00;94.10
26954;DHT22;14508;50.924;11.600;2023-08-24T10:06:48;25.10;93.60
26954;DHT22;14508;50.924;11.600;2023-08-24T10:09:22;25.20;92.90
26954;DHT22;14508;50.924;11.600;2023-08-24T10:11:56;25.20;92.60
26954;DHT22;14508;50.924;11.600;2023-08-24T10:14:31;25.30;92.00
26954;DHT22;14508;50.924;11.600;2023-08-24T10:17:00;25.40;91.90
26954;DHT22;14508;50.924;11.600;2023-08-24T10:19:31;25.40;91.60
26954;DHT22;14508;50.924;11.600;2023-08-24T10:22:00;25.50;91.50
26954;DHT22;14508;50.924;11.600;2023-08-24T10:24:30;25.60;91.20
26954;DHT22;14508;50.924;11.600;2023-08-24T10:27:00;25.70;91.00
26954;DHT22;14508;50.924;11.600;2023-08-24T10:29:29;25.80;91.00
26954;DHT22;14508;50.924;11.600;2023-08-24T10:31:57;25.90;91.20
26954;DHT22;14508;50.924;11.600;2023-08-24T10:34:26;25.90;91.40
26954;DHT22;14508;50.924;11.600;2023-08-24T10:36:55;25.90;91.40
26954;DHT22;14508;50.924;11.600;2023-08-24T10:39:27;25.90;91.30
26954;DHT22;14508;50.924;11.600;2023-08-24T10:41:56;26.00;91.30
26954;DHT22;14508;50.924;11.600;2023-08-24T10:44:33;26.00;91.10
26954;DHT22;14508;50.924;11.600;2023-08-24T10:47:15;26.00;90.80
26954;DHT22;14508;50.924;11.600;2023-08-24T10:49:45;25.90;90.70
26954;DHT22;14508;50.924;11.600;2023-08-24T10:52:18;25.90;90.70
26954;DHT22;14508;50.924;11.600;2023-08-24T10:54:47;25.90;90.70
26954;DHT22;14508;50.924;11.600;2023-08-24T10:57:23;25.90;90.50
26954;DHT22;14508;50.924;11.600;2023-08-24T10:59:59;26.00;90.30
26954;DHT22;14508;50.924;11.600;2023-08-24T11:02:28;26.20;89.30
26954;DHT22;14508;50.924;11.600;2023-08-24T11:05:07;26.30;88.90
26954;DHT22;14508;50.924;11.600;2023-08-24T11:07:48;26.60;87.00
26954;DHT22;14508;50.924;11.600;2023-08-24T11:10:17;26.90;85.10
26954;DHT22;14508;50.924;11.600;2023-08-24T11:13:05;27.10;83.50
26954;DHT22;14508;50.924;11.600;2023-08-24T11:15:41;27.20;77.70
26954;DHT22;14508;50.924;11.600;2023-08-24T11:18:30;27.10;76.80
26954;DHT22;14508;50.924;11.600;2023-08-24T11:21:00;27.20;75.80
26954;DHT22;14508;50.924;11.600;2023-08-24T11:23:34;27.40;74.40
26954;DHT22;14508;50.924;11.600;2023-08-24T11:26:02;27.50;75.30
26954;DHT22;14508;50.924;11.600;2023-08-24T11:28:31;27.50;74.20
26954;DHT22;14508;50.924;11.600;2023-08-24T11:30:59;27.60;73.80
26954;DHT22;14508;50.924;11.600;2023-08-24T11:33:29;27.70;73.40
26954;DHT22;14508;50.924;11.600;2023-08-24T11:35:58;27.70;72.50
26954;DHT22;14508;50.924;11.600;2023-08-24T11:38:36;27.70;71.40
26954;DHT22;14508;50.924;11.600;2023-08-24T11:41:16;27.80;70.60
26954;DHT22;14508;50.924;11.600;2023-08-24T11:43:44;27.80;69.20
26954;DHT22;14508;50.924;11.600;2023-08-24T11:46:14;27.80;67.70
26954;DHT22;14508;50.924;11.600;2023-08-24T11:48:43;27.70;66.30
26954;DHT22;14508;50.924;11.600;2023-08-24T11:51:12;27.60;65.30
26954;DHT22;14508;50.924;11.600;2023-08-24T11:53:50;27.60;62.20
26954;DHT22;14508;50.924;11.600;2023-08-24T11:56:19;27.70;59.80
26954;DHT22;14508;50.924;11.600;2023-08-24T11:58:49;27.80;58.50
26954;DHT22;14508;50.924;11.600;2023-08-24T12:01:18;27.80;57.90
26954;DHT22;14508;50.924;11.600;2023-08-24T12:03:46;28.00;57.40
26954;DHT22;14508;50.924;11.600;2023-08-24T12:06:15;28.10;57.70
26954;DHT22;14508;50.924;11.600;2023-08-24T12:08:46;28.20;58.00
26954;DHT22;14508;50.924;11.600;2023-08-24T12:11:17;28.30;58.40
26954;DHT22;14508;50.924;11.600;2023-08-24T12:13:46;28.40;56.20
26954;DHT22;14508;50.924;11.600;2023-08-24T12:16:16;28.40;55.40
26954;DHT22;14508;50.924;11.600;2023-08-24T12:18:49;28.50;54.90
26954;DHT22;14508;50.924;11.600;2023-08-24T12:21:18;28.50;54.30
26954;DHT22;14508;50.924;11.600;2023-08-24T12:23:57;28.60;53.70
26954;DHT22;14508;50.924;11.600;2023-08-24T12:26:27;28.70;53.70
26954;DHT22;14508;50.924;11.600;2023-08-24T12:29:00;28.70;53.20
26954;DHT22;14508;50.924;11.600;2023-08-24T12:31:29;28.70;53.40
26954;DHT22;14508;50.924;11.600;2023-08-24T12:34:02;28.80;53.40
26954;DHT22;14508;50.924;11.600;2023-08-24T12:36:31;28.80;53.50
26954;DHT22;14508;50.924;11.600;2023-08-24T12:38:59;28.90;53.50
26954;DHT22;14508;50.924;11.600;2023-08-24T12:41:29;28.90;53.20
26954;DHT22;14508;50.924;11.600;2023-08-24T12:43:57;29.00;53.10
26954;DHT22;14508;50.924;11.600;2023-08-24T12:46:25;29.00;52.80
26954;DHT22;14508;50.924;11.600;2023-08-24T12:48:54;29.10;52.90
26954;DHT22;14508;50.924;11.600;2023-08-24T12:51:22;29.10;52.30
26954;DHT22;14508;50.924;11.600;2023-08-24T12:53:51;29.10;52.40
26954;DHT22;14508;50.924;11.600;2023-08-24T12:56:20;29.10;52.70
26954;DHT22;14508;50.924;11.600;2023-08-24T12:58:49;29.10;52.50
26954;DHT22;14508;50.924;11.600;2023-08-24T13:01:17;29.20;52.30
26954;DHT22;14508;50.924;11.600;2023-08-24T13:03:45;29.20;52.20
26954;DHT22;14508;50.924;11.600;2023-08-24T13:06:13;29.30;52.20
26954;DHT22;14508;50.924;11.600;2023-08-24T13:08:50;29.30;52.10
26954;DHT22;14508;50.924;11.600;2023-08-24T13:11:18;29.40;52.10
26954;DHT22;14508;50.924;11.600;2023-08-24T13:13:48;29.40;52.00
26954;DHT22;14508;50.924;11.600;2023-08-24T13:16:16;29.40;51.40
26954;DHT22;14508;50.924;11.600;2023-08-24T13:18:44;29.50;51.20
26954;DHT22;14508;50.924;11.600;2023-08-24T13:21:12;29.50;51.00
26954;DHT22;14508;50.924;11.600;2023-08-24T13:23:43;29.50;50.90
26954;DHT22;14508;50.924;11.600;2023-08-24T13:26:17;29.60;51.00
26954;DHT22;14508;50.924;11.600;2023-08-24T13:28:46;29.60;51.10
26954;DHT22;14508;50.924;11.600;2023-08-24T13:31:15;29.60;50.70
26954;DHT22;14508;50.924;11.600;2023-08-24T13:33:44;29.70;50.20
26954;DHT22;14508;50.924;11.600;2023-08-24T13:36:12;29.80;50.20
26954;DHT22;14508;50.924;11.600;2023-08-24T13:38:40;29.80;50.30
26954;DHT22;14508;50.924;11.600;2023-08-24T13:41:08;29.90;50.00
26954;DHT22;14508;50.924;11.600;2023-08-24T13:43:36;29.90;49.80
26954;DHT22;14508;50.924;11.600;2023-08-24T13:46:06;30.00;49.70
26954;DHT22;14508;50.924;11.600;2023-08-24T13:48:36;30.10;49.30
26954;DHT22;14508;50.924;11.600;2023-08-24T13:51:04;30.10;49.70
26954;DHT22;14508;50.924;11.600;2023-08-24T13:53:32;30.10;49.70
26954;DHT22;14508;50.924;11.600;2023-08-24T13:56:00;30.10;49.90
26954;DHT22;14508;50.924;11.600;2023-08-24T13:58:28;30.20;49.80
26954;DHT22;14508;50.924;11.600;2023-08-24T14:00:56;30.20;49.60
26954;DHT22;14508;50.924;11.600;2023-08-24T14:03:24;30.20;49.40
26954;DHT22;14508;50.924;11.600;2023-08-24T14:05:56;30.20;49.50
26954;DHT22;14508;50.924;11.600;2023-08-24T14:08:24;30.20;49.60
26954;DHT22;14508;50.924;11.600;2023-08-24T14:10:53;30.30;49.60
26954;DHT22;14508;50.924;11.600;2023-08-24T14:13:21;30.20;49.20
26954;DHT22;14508;50.924;11.600;2023-08-24T14:15:50;30.20;49.30
26954;DHT22;14508;50.924;11.600;2023-08-24T14:18:18;30.20;49.70
26954;DHT22;14508;50.924;11.600;2023-08-24T14:20:47;30.20;50.00
26954;DHT22;14508;50.924;11.600;2023-08-24T14:23:16;30.10;50.10
26954;DHT22;14508;50.924;11.600;2023-08-24T14:25:46;30.10;50.40
26954;DHT22;14508;50.924;11.600;2023-08-24T14:28:20;30.00;50.80
26954;DHT22;14508;50.924;11.600;2023-08-24T14:30:49;30.00;51.10
26954;DHT22;14508;50.924;11.600;2023-08-24T14:33:17;30.00;51.30
26954;DHT22;14508;50.924;11.600;2023-08-24T14:35:51;30.10;51.50
26954;DHT22;14508;50.924;11.600;2023-08-24T14:38:21;30.20;50.90
26954;DHT22;14508;50.924;11.600;2023-08-24T14:40:49;30.30;51.00
26954;DHT22;14508;50.924;11.600;2023-08-24T14:43:17;30.40;51.00
26954;DHT22;14508;50.924;11.600;2023-08-24T14:45:45;30.50;51.40
26954;DHT22;14508;50.924;11.600;2023-08-24T14:48:13;30.50;51.50
26954;DHT22;14508;50.924;11.600;2023-08-24T14:50:42;30.60;51.30
26954;DHT22;14508;50.924;11.600;2023-08-24T14:53:10;30.60;51.30
26954;DHT22;14508;50.924;11.600;2023-08-24T14:55:39;30.60;51.10
26954;DHT22;14508;50.924;11.600;2023-08-24T14:58:07;30.60;50.90
26954;DHT22;14508;50.924;11.600;2023-08-24T15:00:35;30.70;50.40
26954;DHT22;14508;50.924;11.600;2023-08-24T15:03:03;30.80;50.10
26954;DHT22;14508;50.924;11.600;2023-08-24T15:05:38;30.80;50.40
26954;DHT22;14508;50.924;11.600;2023-08-24T15:08:06;30.90;50.20
26954;DHT22;14508;50.924;11.600;2023-08-24T15:10:34;30.80;50.30
26954;DHT22;14508;50.924;11.600;2023-08-24T15:13:04;30.90;50.00
26954;DHT22;14508;50.924;11.600;2023-08-24T15:15:35;31.00;50.30
26954;DHT22;14508;50.924;11.600;2023-08-24T15:18:04;31.10;50.40
26954;DHT22;14508;50.924;11.600;2023-08-24T15:20:32;31.20;50.30
26954;DHT22;14508;50.924;11.600;2023-08-24T15:23:00;31.20;50.10
26954;DHT22;14508;50.924;11.600;2023-08-24T15:25:28;31.20;50.00
26954;DHT22;14508;50.924;11.600;2023-08-24T15:27:56;31.10;50.30
26954;DHT22;14508;50.924;11.600;2023-08-24T15:30:26;31.00;50.60